Time;durP1;ratioP1;P1;durP2;ratioP2;P2;SDS_P1;SDS_P2;PMS_P1;PMS_P2;Temp;Humidity;BMP_temperature;BMP_pressure;BME280_temperature;BME280_humidity;BME280_pressure;Samples;Min_cycle;Max_cycle;Signal;HPM_P1;HPM_P2
2021/05/28 00:04:29;;;;;;;4.85;4.45;;;;;;;;;;10278441;28;20073;-64
2021/05/28 00:09:27;;;;;;;7.13;4.60;;;;;;;;;;10277662;28;20068;-64
2021/05/28 00:14:25;;;;;;;4.82;4.30;;;;;;;;;;10277510;28;20075;-64
2021/05/28 00:19:23;;;;;;;5.63;5.07;;;;;;;;;;10277523;28;20052;-64
2021/05/28 00:24:22;;;;;;;5.53;5.03;;;;;;;;;;10277463;28;20107;-64
2021/05/28 00:29:19;;;;;;;7.47;5.13;;;;;;;;;;10278351;28;20080;-64
2021/05/28 00:34:17;;;;;;;12.23;5.32;;;;;;;;;;10278427;28;20037;-64
2021/05/28 00:39:16;;;;;;;11.32;5.40;;;;;;;;;;10278122;28;20049;-64
2021/05/28 00:44:14;;;;;;;6.88;5.50;;;;;;;;;;10277530;28;20053;-64
2021/05/28 00:49:14;;;;;;;9.57;6.20;;;;;;;;;;10277628;28;20084;-64
2021/05/28 00:54:12;;;;;;;7.60;5.70;;;;;;;;;;10277537;28;20446;-64
2021/05/28 00:59:12;;;;;;;8.43;6.05;;;;;;;;;;10275918;28;20049;-64
2021/05/28 01:04:10;;;;;;;8.45;6.57;;;;;;;;;;10276669;28;20445;-64
2021/05/28 01:09:09;;;;;;;6.55;5.95;;;;;;;;;;10276101;28;20430;-64
2021/05/28 01:14:06;;;;;;;8.70;6.75;;;;;;;;;;10276953;28;20044;-64
2021/05/28 01:19:05;;;;;;;8.07;6.05;;;;;;;;;;10276487;28;20143;-64
2021/05/28 01:24:04;;;;;;;8.27;6.47;;;;;;;;;;10276458;28;20076;-64
2021/05/28 01:29:02;;;;;;;6.70;6.10;;;;;;;;;;10275450;28;20076;-64
2021/05/28 01:34:00;;;;;;;7.85;6.32;;;;;;;;;;10276619;28;20041;-64
2021/05/28 01:38:58;;;;;;;9.40;6.55;;;;;;;;;;10276584;28;20045;-64
2021/05/28 01:43:57;;;;;;;7.53;6.38;;;;;;;;;;10276361;28;20036;-64
2021/05/28 01:48:55;;;;;;;10.15;6.68;;;;;;;;;;10275864;28;20514;-65
2021/05/28 01:53:53;;;;;;;7.05;6.35;;;;;;;;;;10275954;28;20091;-64
2021/05/28 01:58:51;;;;;;;10.88;6.80;;;;;;;;;;10274877;28;20079;-64
2021/05/28 02:03:49;;;;;;;7.45;6.75;;;;;;;;;;10275291;28;20060;-64
2021/05/28 02:08:47;;;;;;;8.95;6.03;;;;;;;;;;10275798;28;20053;-64
2021/05/28 02:13:45;;;;;;;8.65;6.00;;;;;;;;;;10273819;28;20048;-64
2021/05/28 02:18:47;;;;;;;11.88;6.03;;;;;;;;;;10275538;28;20045;-64
2021/05/28 02:23:46;;;;;;;7.32;6.57;;;;;;;;;;10275622;28;20041;-65
2021/05/28 02:28:44;;;;;;;7.60;6.63;;;;;;;;;;10274951;28;20045;-64
2021/05/28 02:33:42;;;;;;;9.13;5.88;;;;;;;;;;10279432;28;20091;-64
2021/05/28 02:38:39;;;;;;;7.90;5.82;;;;;;;;;;10282842;28;20041;-64
2021/05/28 02:43:38;;;;;;;7.65;6.15;;;;;;;;;;10282624;28;20072;-64
2021/05/28 02:48:36;;;;;;;7.43;5.90;;;;;;;;;;10282405;28;20507;-64
2021/05/28 02:53:34;;;;;;;7.25;6.55;;;;;;;;;;10282236;28;20072;-64
2021/05/28 02:58:32;;;;;;;8.13;6.32;;;;;;;;;;10282067;28;20080;-64
2021/05/28 03:03:31;;;;;;;7.95;6.10;;;;;;;;;;10279478;28;20526;-64
2021/05/28 03:08:30;;;;;;;8.63;6.35;;;;;;;;;;10277960;28;20077;-64
2021/05/28 03:13:28;;;;;;;8.77;7.03;;;;;;;;;;10275465;28;20072;-64
2021/05/28 03:18:34;;;;;;;9.38;7.47;;;;;;;;;;10277114;28;20049;-64
2021/05/28 03:23:32;;;;;;;8.45;7.70;;;;;;;;;;10278348;28;20099;-64
2021/05/28 03:28:30;;;;;;;8.10;7.28;;;;;;;;;;10269390;28;20064;-64
2021/05/28 03:33:28;;;;;;;10.43;8.63;;;;;;;;;;10278422;28;20466;-64
2021/05/28 03:38:26;;;;;;;10.43;9.38;;;;;;;;;;10273438;28;20475;-64
2021/05/28 03:43:25;;;;;;;10.40;8.27;;;;;;;;;;10273213;28;20072;-63
2021/05/28 03:48:23;;;;;;;9.38;7.97;;;;;;;;;;10274760;28;20081;-64
2021/05/28 03:53:21;;;;;;;9.63;8.43;;;;;;;;;;10271260;28;20085;-64
2021/05/28 03:58:18;;;;;;;10.88;9.77;;;;;;;;;;10254439;28;20572;-64
2021/05/28 04:03:17;;;;;;;9.48;8.63;;;;;;;;;;10255532;28;20081;-64
2021/05/28 04:08:15;;;;;;;9.77;8.60;;;;;;;;;;10257363;28;20069;-64
2021/05/28 04:13:13;;;;;;;10.38;9.25;;;;;;;;;;10236506;28;20083;-63
2021/05/28 04:18:11;;;;;;;9.73;8.63;;;;;;;;;;10236865;28;20084;-64
2021/05/28 04:23:09;;;;;;;12.65;9.80;;;;;;;;;;10236532;28;20052;-64
2021/05/28 04:28:07;;;;;;;10.35;9.35;;;;;;;;;;10235675;28;20411;-65
2021/05/28 04:33:05;;;;;;;14.40;9.18;;;;;;;;;;10236395;28;20089;-64
2021/05/28 04:38:03;;;;;;;11.10;8.85;;;;;;;;;;10236401;28;20050;-63
2021/05/28 04:43:02;;;;;;;9.70;8.80;;;;;;;;;;10235845;28;20067;-62
2021/05/28 04:48:00;;;;;;;10.15;9.07;;;;;;;;;;10234672;28;20454;-64
2021/05/28 04:52:58;;;;;;;10.98;9.48;;;;;;;;;;10232385;28;20096;-63
2021/05/28 04:57:56;;;;;;;11.60;8.60;;;;;;;;;;10230868;28;20081;-64
2021/05/28 05:02:55;;;;;;;11.48;9.10;;;;;;;;;;10231529;28;20081;-62
2021/05/28 05:07:53;;;;;;;9.93;8.32;;;;;;;;;;10234427;28;20068;-62
2021/05/28 05:12:51;;;;;;;13.40;8.80;;;;;;;;;;10234521;28;20107;-62
2021/05/28 05:17:49;;;;;;;11.23;8.98;;;;;;;;;;10234125;28;20073;-63
2021/05/28 05:22:47;;;;;;;6.80;6.13;;;;;;;;;;10234833;28;20053;-62
2021/05/28 05:27:45;;;;;;;11.15;7.90;;;;;;;;;;10233828;28;20053;-62
2021/05/28 05:32:44;;;;;;;8.80;7.90;;;;;;;;;;10234602;28;20083;-63
2021/05/28 05:37:42;;;;;;;8.60;7.72;;;;;;;;;;10234100;28;20072;-62
2021/05/28 05:42:41;;;;;;;9.57;8.45;;;;;;;;;;10233341;28;20037;-62
2021/05/28 05:47:40;;;;;;;9.80;7.90;;;;;;;;;;10234267;28;20052;-62
2021/05/28 05:52:38;;;;;;;8.35;7.45;;;;;;;;;;10233913;28;20529;-62
2021/05/28 05:57:36;;;;;;;7.72;6.18;;;;;;;;;;10234109;28;20088;-62
2021/05/28 06:02:36;;;;;;;7.18;6.22;;;;;;;;;;10233612;28;20065;-62
2021/05/28 06:07:35;;;;;;;8.82;6.95;;;;;;;;;;10237478;28;20045;-62
2021/05/28 06:12:33;;;;;;;7.97;7.18;;;;;;;;;;10241162;28;20076;-62
2021/05/28 06:17:31;;;;;;;10.23;7.05;;;;;;;;;;10241626;28;20049;-62
2021/05/28 06:22:31;;;;;;;11.43;8.32;;;;;;;;;;10241008;28;20075;-62
2021/05/28 06:27:29;;;;;;;8.90;7.00;;;;;;;;;;10240913;28;20411;-62
2021/05/28 06:32:27;;;;;;;9.73;7.68;;;;;;;;;;10240572;28;20092;-62
2021/05/28 06:37:24;;;;;;;11.52;5.88;;;;;;;;;;10239327;28;20050;-62
2021/05/28 06:42:23;;;;;;;11.45;9.30;;;;;;;;;;10240493;28;20077;-62
2021/05/28 06:47:21;;;;;;;9.15;6.35;;;;;;;;;;10240368;28;20033;-62
2021/05/28 06:52:19;;;;;;;8.23;6.72;;;;;;;;;;10239753;28;20077;-62
2021/05/28 06:57:17;;;;;;;7.65;6.10;;;;;;;;;;10239711;28;20073;-62
2021/05/28 07:02:15;;;;;;;8.60;7.20;;;;;;;;;;10238274;28;20065;-62
2021/05/28 07:07:13;;;;;;;10.40;7.43;;;;;;;;;;10239348;28;20053;-62
2021/05/28 07:12:12;;;;;;;13.15;8.50;;;;;;;;;;10239449;28;20096;-62
2021/05/28 07:17:10;;;;;;;13.43;8.77;;;;;;;;;;10238425;28;20065;-62
2021/05/28 07:22:09;;;;;;;8.68;7.88;;;;;;;;;;10238114;28;20049;-63
2021/05/28 07:27:06;;;;;;;12.02;9.07;;;;;;;;;;10239068;28;20042;-62
2021/05/28 07:32:05;;;;;;;13.70;8.05;;;;;;;;;;10237766;28;20073;-63
2021/05/28 07:37:03;;;;;;;9.27;7.32;;;;;;;;;;10237026;28;20037;-63
2021/05/28 07:42:02;;;;;;;11.05;7.05;;;;;;;;;;10238346;28;20052;-62
2021/05/28 07:47:00;;;;;;;11.02;7.10;;;;;;;;;;10237944;28;20049;-63
2021/05/28 07:51:58;;;;;;;8.10;7.30;;;;;;;;;;10238036;28;20088;-63
2021/05/28 07:56:55;;;;;;;12.75;6.90;;;;;;;;;;10237900;28;20081;-63
2021/05/28 08:01:54;;;;;;;6.03;5.43;;;;;;;;;;10236630;28;20073;-63
2021/05/28 08:06:52;;;;;;;5.78;5.28;;;;;;;;;;10237201;28;20068;-62
2021/05/28 08:11:50;;;;;;;7.57;6.28;;;;;;;;;;10236449;28;20392;-62
2021/05/28 08:16:48;;;;;;;13.07;6.25;;;;;;;;;;10237222;28;20078;-62
2021/05/28 08:21:46;;;;;;;4.57;4.18;;;;;;;;;;10236975;28;20041;-62
2021/05/28 08:26:44;;;;;;;7.10;5.90;;;;;;;;;;10236190;28;20506;-63
2021/05/28 08:31:42;;;;;;;5.70;4.97;;;;;;;;;;10236319;28;20084;-62
2021/05/28 08:36:40;;;;;;;7.60;4.45;;;;;;;;;;10235577;28;20076;-62
2021/05/28 08:41:42;;;;;;;3.42;3.13;;;;;;;;;;10235988;28;20179;-62
2021/05/28 08:46:40;;;;;;;15.40;13.80;;;;;;;;;;10235969;28;20119;-62
2021/05/28 08:51:37;;;;;;;8.25;5.20;;;;;;;;;;10235054;28;20078;-62
2021/05/28 08:56:35;;;;;;;4.50;2.70;;;;;;;;;;10235021;28;20069;-62
2021/05/28 09:01:34;;;;;;;4.90;2.80;;;;;;;;;;10234639;28;20131;-62
2021/05/28 09:06:41;;;;;;;6.63;2.05;;;;;;;;;;10234597;28;20056;-62
2021/05/28 09:11:55;;;;;;;4.32;3.15;;;;;;;;;;10234661;28;20081;-61
2021/05/28 09:16:54;;;;;;;4.72;4.10;;;;;;;;;;10234778;28;20084;-61
2021/05/28 09:21:57;;;;;;;2.45;2.25;;;;;;;;;;10234459;28;20060;-62
2021/05/28 09:26:54;;;;;;;3.25;2.95;;;;;;;;;;10234167;28;20053;-61
2021/05/28 09:31:52;;;;;;;2.80;2.20;;;;;;;;;;10234061;28;20077;-61
2021/05/28 09:36:51;;;;;;;3.17;2.22;;;;;;;;;;10234035;28;20060;-61
2021/05/28 09:41:51;;;;;;;11.98;3.17;;;;;;;;;;10233137;28;20499;-61
2021/05/28 09:47:02;;;;;;;4.32;2.47;;;;;;;;;;10233697;28;20046;-63
2021/05/28 09:52:08;;;;;;;5.85;2.35;;;;;;;;;;10234003;28;20089;-62
2021/05/28 09:57:06;;;;;;;4.25;2.53;;;;;;;;;;10234185;28;20439;-62
2021/05/28 10:02:04;;;;;;;4.65;3.60;;;;;;;;;;10233474;28;20061;-62
2021/05/28 10:07:02;;;;;;;5.82;4.90;;;;;;;;;;10232476;28;20045;-63
2021/05/28 10:12:00;;;;;;;7.90;5.88;;;;;;;;;;10231973;28;20199;-62
2021/05/28 10:16:58;;;;;;;5.85;4.65;;;;;;;;;;10233143;28;20050;-62
2021/05/28 10:21:56;;;;;;;5.57;5.05;;;;;;;;;;10232551;28;20049;-62
2021/05/28 10:26:54;;;;;;;7.38;6.68;;;;;;;;;;10233037;28;20248;-62
2021/05/28 10:31:54;;;;;;;9.60;7.45;;;;;;;;;;10232419;28;20073;-62
2021/05/28 10:36:52;;;;;;;7.38;6.68;;;;;;;;;;10232874;28;20514;-62
2021/05/28 10:41:52;;;;;;;17.45;7.63;;;;;;;;;;10232565;28;20042;-62
2021/05/28 10:46:51;;;;;;;10.18;7.53;;;;;;;;;;10233238;28;20080;-62
2021/05/28 10:52:00;;;;;;;7.68;6.97;;;;;;;;;;10232275;28;20089;-62
2021/05/28 10:57:17;;;;;;;6.13;5.53;;;;;;;;;;10239334;28;20481;-62
2021/05/28 11:02:16;;;;;;;6.10;5.50;;;;;;;;;;10238526;28;20400;-62
2021/05/28 11:07:15;;;;;;;8.05;7.28;;;;;;;;;;10239118;28;20080;-63
2021/05/28 11:12:14;;;;;;;20.60;15.38;;;;;;;;;;10239399;28;20077;-62
2021/05/28 11:17:18;;;;;;;17.13;13.18;;;;;;;;;;10239377;28;20049;-62
2021/05/28 11:22:26;;;;;;;9.48;8.68;;;;;;;;;;10239138;28;20053;-62
2021/05/28 11:27:44;;;;;;;9.18;8.20;;;;;;;;;;10239052;28;20049;-62
2021/05/28 11:32:46;;;;;;;8.55;7.78;;;;;;;;;;10238907;28;20089;-62
2021/05/28 11:37:48;;;;;;;9.98;8.18;;;;;;;;;;10238456;28;20045;-62
2021/05/28 11:42:46;;;;;;;37.92;33.90;;;;;;;;;;10238306;28;20061;-62
2021/05/28 11:47:44;;;;;;;8.88;7.45;;;;;;;;;;10238277;28;20081;-62
2021/05/28 11:52:55;;;;;;;9.55;8.35;;;;;;;;;;10238073;28;20077;-62
2021/05/28 11:57:56;;;;;;;10.25;8.05;;;;;;;;;;10237874;28;20069;-62
2021/05/28 12:02:56;;;;;;;9.35;7.00;;;;;;;;;;10237371;28;20092;-62
2021/05/28 12:07:56;;;;;;;11.20;10.05;;;;;;;;;;10237261;28;20053;-62
2021/05/28 12:12:55;;;;;;;10.73;8.40;;;;;;;;;;10237241;28;20439;-63
2021/05/28 12:17:53;;;;;;;8.60;7.70;;;;;;;;;;10237287;28;20076;-63
2021/05/28 12:22:59;;;;;;;6.93;5.22;;;;;;;;;;10236718;28;20045;-63
2021/05/28 12:28:14;;;;;;;6.20;4.88;;;;;;;;;;10236509;28;20414;-63
2021/05/28 12:33:12;;;;;;;6.65;5.85;;;;;;;;;;10236624;28;20092;-63
2021/05/28 12:38:12;;;;;;;7.55;5.03;;;;;;;;;;10236106;28;20065;-63
2021/05/28 12:43:11;;;;;;;10.75;9.38;;;;;;;;;;10235898;28;20046;-63
2021/05/28 12:48:10;;;;;;;17.65;13.65;;;;;;;;;;10236061;28;20112;-63
2021/05/28 12:53:13;;;;;;;8.25;7.45;;;;;;;;;;10235539;28;20081;-63
2021/05/28 12:58:21;;;;;;;4.93;4.20;;;;;;;;;;10235658;28;20041;-62
2021/05/28 13:03:30;;;;;;;5.60;4.75;;;;;;;;;;10234663;28;20049;-62
2021/05/28 13:08:32;;;;;;;5.28;3.63;;;;;;;;;;10233598;28;20061;-62
2021/05/28 13:13:30;;;;;;;5.55;5.05;;;;;;;;;;10235005;28;20519;-62
2021/05/28 13:18:39;;;;;;;9.75;8.70;;;;;;;;;;10234569;28;20483;-62
2021/05/28 13:23:38;;;;;;;6.43;5.30;;;;;;;;;;10234170;28;20060;-62
2021/05/28 13:28:36;;;;;;;8.18;5.88;;;;;;;;;;10234979;28;20053;-62
2021/05/28 13:33:37;;;;;;;3.10;2.25;;;;;;;;;;10234480;28;20077;-62
2021/05/28 13:38:37;;;;;;;9.05;6.88;;;;;;;;;;10233378;28;20041;-62
2021/05/28 13:43:35;;;;;;;4.20;3.40;;;;;;;;;;10234506;28;20049;-62
2021/05/28 13:48:33;;;;;;;4.55;3.17;;;;;;;;;;10234370;28;20049;-63
2021/05/28 13:53:31;;;;;;;2.88;2.35;;;;;;;;;;10233009;28;20073;-62
2021/05/28 13:58:29;;;;;;;1.52;1.33;;;;;;;;;;10232503;28;20054;-63
2021/05/28 14:03:28;;;;;;;2.67;1.45;;;;;;;;;;10233434;28;20088;-63
2021/05/28 14:08:26;;;;;;;4.32;1.52;;;;;;;;;;10233308;28;20052;-63
2021/05/28 14:13:24;;;;;;;3.40;1.48;;;;;;;;;;10234130;28;20084;-63
2021/05/28 14:18:21;;;;;;;3.10;1.10;;;;;;;;;;10233591;28;20045;-63
2021/05/28 14:23:20;;;;;;;4.80;2.13;;;;;;;;;;10233691;28;20325;-63
2021/05/28 14:28:19;;;;;;;3.90;2.72;;;;;;;;;;10236363;28;20076;-63
2021/05/28 14:33:17;;;;;;;4.20;2.20;;;;;;;;;;10241254;28;20083;-63
2021/05/28 14:38:15;;;;;;;3.88;1.92;;;;;;;;;;10240731;28;20065;-63
2021/05/28 14:43:14;;;;;;;4.68;1.77;;;;;;;;;;10265243;28;20064;-62
2021/05/28 14:48:12;;;;;;;4.45;1.63;;;;;;;;;;10273098;28;20494;-63
2021/05/28 14:53:10;;;;;;;1.58;1.48;;;;;;;;;;10271964;28;20477;-62
2021/05/28 14:58:08;;;;;;;3.05;1.30;;;;;;;;;;10261722;28;20054;-62
2021/05/28 15:03:06;;;;;;;2.58;1.50;;;;;;;;;;10263397;28;20100;-64
2021/05/28 15:08:05;;;;;;;2.78;1.65;;;;;;;;;;10271152;28;20072;-63
2021/05/28 15:13:03;;;;;;;2.63;1.77;;;;;;;;;;10281235;28;20079;-63
2021/05/28 15:18:00;;;;;;;1.63;1.45;;;;;;;;;;10281295;28;20490;-63
2021/05/28 15:22:59;;;;;;;4.22;1.85;;;;;;;;;;10275136;28;20080;-63
2021/05/28 15:27:57;;;;;;;2.72;1.70;;;;;;;;;;10251642;28;20414;-63
2021/05/28 15:32:55;;;;;;;3.30;1.77;;;;;;;;;;10244417;28;20068;-62
2021/05/28 15:37:53;;;;;;;4.00;2.20;;;;;;;;;;10265092;28;20073;-62
2021/05/28 15:43:00;;;;;;;3.38;2.10;;;;;;;;;;10248760;28;20088;-63
2021/05/28 15:47:58;;;;;;;5.57;1.90;;;;;;;;;;10239752;28;20050;-62
2021/05/28 15:52:56;;;;;;;3.83;1.92;;;;;;;;;;10252934;28;20069;-62
2021/05/28 15:57:54;;;;;;;6.40;2.72;;;;;;;;;;10279598;28;20079;-63
2021/05/28 16:02:53;;;;;;;2.30;1.55;;;;;;;;;;10278713;28;20505;-62
2021/05/28 16:07:51;;;;;;;8.13;2.03;;;;;;;;;;10257718;28;20530;-62
2021/05/28 16:12:49;;;;;;;2.38;1.70;;;;;;;;;;10271290;28;20049;-62
2021/05/28 16:17:47;;;;;;;2.70;1.90;;;;;;;;;;10261471;28;20494;-61
2021/05/28 16:22:46;;;;;;;6.28;3.28;;;;;;;;;;10259524;28;20065;-61
2021/05/28 16:27:53;;;;;;;3.95;1.67;;;;;;;;;;10259329;28;20100;-61
2021/05/28 16:32:51;;;;;;;4.55;2.03;;;;;;;;;;10251855;28;20344;-61
2021/05/28 16:37:50;;;;;;;3.10;2.05;;;;;;;;;;10273514;28;20080;-62
2021/05/28 16:42:48;;;;;;;7.88;2.65;;;;;;;;;;10276333;28;20088;-62
2021/05/28 16:47:46;;;;;;;6.55;2.97;;;;;;;;;;10274569;28;20053;-62
2021/05/28 16:52:44;;;;;;;7.07;3.13;;;;;;;;;;10276170;28;20103;-63
2021/05/28 16:57:43;;;;;;;35.63;29.15;;;;;;;;;;10271169;28;20075;-63
2021/05/28 17:02:42;;;;;;;4.30;2.40;;;;;;;;;;10272096;28;20108;-64
2021/05/28 17:07:41;;;;;;;4.95;3.55;;;;;;;;;;10261214;28;20080;-63
2021/05/28 17:12:39;;;;;;;3.92;3.08;;;;;;;;;;10274443;28;20048;-64
2021/05/28 17:17:38;;;;;;;3.67;2.38;;;;;;;;;;10267794;28;20075;-64
2021/05/28 17:22:39;;;;;;;5.97;2.72;;;;;;;;;;10271898;28;20068;-63
2021/05/28 17:27:40;;;;;;;4.00;2.90;;;;;;;;;;10262062;28;20068;-63
2021/05/28 17:32:39;;;;;;;4.13;2.35;;;;;;;;;;10274743;28;20045;-64
2021/05/28 17:37:39;;;;;;;4.20;3.22;;;;;;;;;;10269303;28;20540;-61
2021/05/28 17:42:37;;;;;;;7.38;4.32;;;;;;;;;;10274134;28;20083;-62
2021/05/28 17:47:35;;;;;;;7.50;3.25;;;;;;;;;;10274261;28;20068;-63
2021/05/28 17:52:34;;;;;;;5.50;4.15;;;;;;;;;;10246250;28;20062;-62
2021/05/28 17:57:33;;;;;;;7.63;4.15;;;;;;;;;;10275505;28;20060;-64
2021/05/28 18:02:31;;;;;;;4.70;3.80;;;;;;;;;;10276754;28;20084;-63
2021/05/28 18:07:29;;;;;;;7.32;3.58;;;;;;;;;;10281281;28;20091;-63
2021/05/28 18:12:28;;;;;;;9.70;4.80;;;;;;;;;;10274957;28;20446;-63
2021/05/28 18:17:26;;;;;;;5.78;5.22;;;;;;;;;;10281712;28;20057;-64
2021/05/28 18:22:24;;;;;;;6.95;3.58;;;;;;;;;;10282198;28;20045;-62
2021/05/28 18:27:22;;;;;;;9.18;3.45;;;;;;;;;;10283164;28;20088;-63
2021/05/28 18:32:21;;;;;;;3.40;3.10;;;;;;;;;;10281703;28;20080;-63
2021/05/28 18:37:19;;;;;;;8.38;3.83;;;;;;;;;;10281572;28;20084;-63
2021/05/28 18:42:16;;;;;;;4.55;3.80;;;;;;;;;;10282463;28;20067;-64
2021/05/28 18:47:14;;;;;;;4.68;4.15;;;;;;;;;;10279836;28;20065;-63
2021/05/28 18:52:13;;;;;;;4.45;4.00;;;;;;;;;;10281950;28;20078;-63
2021/05/28 18:57:11;;;;;;;4.75;3.47;;;;;;;;;;10277829;28;20077;-63
2021/05/28 19:02:10;;;;;;;7.57;6.13;;;;;;;;;;10281116;28;20056;-63
2021/05/28 19:07:08;;;;;;;8.25;4.38;;;;;;;;;;10281573;28;20048;-63
2021/05/28 19:12:07;;;;;;;13.52;4.47;;;;;;;;;;10281350;28;20037;-64
2021/05/28 19:17:09;;;;;;;6.55;4.28;;;;;;;;;;10279724;28;20084;-64
2021/05/28 19:22:07;;;;;;;9.45;4.13;;;;;;;;;;10273036;28;20069;-62
2021/05/28 19:27:05;;;;;;;7.53;4.55;;;;;;;;;;10279026;28;20041;-63
2021/05/28 19:32:04;;;;;;;5.50;4.80;;;;;;;;;;10280387;28;20068;-63
2021/05/28 19:37:04;;;;;;;7.60;4.15;;;;;;;;;;10280248;28;20080;-63
2021/05/28 19:42:02;;;;;;;9.82;4.72;;;;;;;;;;10279516;28;20044;-63
2021/05/28 19:47:00;;;;;;;4.57;4.18;;;;;;;;;;10275516;28;20072;-63
2021/05/28 19:52:00;;;;;;;11.15;4.22;;;;;;;;;;10279644;28;20073;-63
2021/05/28 19:56:58;;;;;;;7.95;4.55;;;;;;;;;;10273932;28;20509;-62
2021/05/28 20:01:56;;;;;;;8.95;5.63;;;;;;;;;;10276049;28;20057;-63
2021/05/28 20:06:54;;;;;;;8.48;4.65;;;;;;;;;;10257427;28;20526;-63
2021/05/28 20:12:02;;;;;;;5.95;4.40;;;;;;;;;;10256916;28;20501;-63
2021/05/28 20:17:00;;;;;;;6.90;4.38;;;;;;;;;;10258850;28;20087;-63
2021/05/28 20:21:58;;;;;;;10.43;4.18;;;;;;;;;;10271271;28;20080;-62
2021/05/28 20:26:59;;;;;;;7.68;4.20;;;;;;;;;;10274197;28;20033;-62
2021/05/28 20:31:57;;;;;;;6.30;3.88;;;;;;;;;;10268607;28;20143;-63
2021/05/28 20:36:55;;;;;;;5.70;4.45;;;;;;;;;;10275000;28;20076;-62
2021/05/28 20:41:53;;;;;;;6.13;3.80;;;;;;;;;;10275289;28;20081;-62
2021/05/28 20:46:53;;;;;;;7.28;4.28;;;;;;;;;;10277141;28;20057;-62
2021/05/28 20:51:50;;;;;;;7.95;4.35;;;;;;;;;;10277406;28;20045;-63
2021/05/28 20:57:02;;;;;;;6.13;4.10;;;;;;;;;;10277389;28;20084;-63
2021/05/28 21:02:01;;;;;;;5.60;4.57;;;;;;;;;;10276603;28;20220;-63
2021/05/28 21:06:59;;;;;;;6.50;4.10;;;;;;;;;;10277169;28;20080;-62
2021/05/28 21:11:57;;;;;;;7.60;4.20;;;;;;;;;;10276818;28;20041;-63
2021/05/28 21:16:55;;;;;;;6.95;3.67;;;;;;;;;;10276474;28;20092;-62
2021/05/28 21:21:54;;;;;;;7.95;4.05;;;;;;;;;;10276749;28;20041;-62
2021/05/28 21:26:52;;;;;;;8.52;4.20;;;;;;;;;;10276435;28;20509;-62
2021/05/28 21:31:49;;;;;;;9.43;4.53;;;;;;;;;;10276253;28;20077;-62
2021/05/28 21:36:47;;;;;;;6.90;3.80;;;;;;;;;;10273913;28;20057;-63
2021/05/28 21:41:46;;;;;;;9.15;4.30;;;;;;;;;;10276089;28;20069;-63
2021/05/28 21:46:44;;;;;;;6.93;3.83;;;;;;;;;;10275962;28;20041;-63
2021/05/28 21:51:42;;;;;;;7.75;4.88;;;;;;;;;;10275675;28;20075;-63
2021/05/28 21:56:39;;;;;;;7.63;4.78;;;;;;;;;;10275439;28;20080;-63
2021/05/28 22:01:38;;;;;;;11.20;4.20;;;;;;;;;;10274704;28;20082;-63
2021/05/28 22:06:36;;;;;;;9.07;4.30;;;;;;;;;;10275653;28;20052;-63
2021/05/28 22:11:34;;;;;;;6.40;4.07;;;;;;;;;;10275363;28;20045;-63
2021/05/28 22:16:32;;;;;;;8.55;4.18;;;;;;;;;;10275097;28;20077;-63
2021/05/28 22:21:31;;;;;;;8.18;4.63;;;;;;;;;;10274426;28;20075;-63
2021/05/28 22:26:36;;;;;;;6.03;4.50;;;;;;;;;;10273867;28;20073;-63
2021/05/28 22:36:50;;;;;;;14.00;5.97;;;;;;;;;;10274715;28;20087;-63
2021/05/28 22:41:51;;;;;;;7.47;5.03;;;;;;;;;;10274658;28;20056;-63
2021/05/28 22:46:48;;;;;;;9.98;5.07;;;;;;;;;;10274743;28;20483;-62
2021/05/28 22:51:48;;;;;;;8.55;5.10;;;;;;;;;;10281439;28;20056;-63
2021/05/28 22:56:49;;;;;;;7.25;4.35;;;;;;;;;;10281698;28;20087;-63
2021/05/28 23:01:47;;;;;;;11.85;4.47;;;;;;;;;;10281063;28;20057;-62
2021/05/28 23:06:45;;;;;;;6.75;4.63;;;;;;;;;;10281714;28;20060;-63
2021/05/28 23:16:59;;;;;;;10.80;4.95;;;;;;;;;;10280431;28;20095;-63
2021/05/28 23:21:57;;;;;;;6.30;4.78;;;;;;;;;;10281040;28;20700;-62
2021/05/28 23:26:55;;;;;;;5.15;4.18;;;;;;;;;;10280677;28;20508;-63
2021/05/28 23:31:52;;;;;;;8.93;4.35;;;;;;;;;;10280772;28;20049;-62
2021/05/28 23:36:51;;;;;;;7.90;4.65;;;;;;;;;;10280300;28;20084;-63
2021/05/28 23:41:49;;;;;;;9.45;4.32;;;;;;;;;;10280016;28;20053;-63
2021/05/28 23:46:47;;;;;;;7.32;3.83;;;;;;;;;;10279862;28;20060;-63
2021/05/28 23:51:45;;;;;;;12.93;4.88;;;;;;;;;;10280101;28;20079;-62
2021/05/28 23:56:44;;;;;;;7.47;4.35;;;;;;;;;;10278756;28;20080;-63
